sensor_id;sensor_type;location;lat;lon;timestamp;pressure;altitude;pressure_sealevel;temperature;humidity
29169;BME280;16219;42.864;23.360;2024-03-08T00:00:35;95932.25;;;5.78;100.00
29169;BME280;16219;42.864;23.360;2024-03-08T00:03:03;95936.06;;;5.86;100.00
29169;BME280;16219;42.864;23.360;2024-03-08T00:05:31;95942.38;;;5.85;100.00
29169;BME280;16219;42.864;23.360;2024-03-08T00:07:58;95937.69;;;5.82;100.00
29169;BME280;16219;42.864;23.360;2024-03-08T00:10:25;95934.28;;;5.81;100.00
29169;BME280;16219;42.864;23.360;2024-03-08T00:12:54;95937.97;;;5.80;100.00
29169;BME280;16219;42.864;23.360;2024-03-08T00:15:22;95936.91;;;5.81;100.00
29169;BME280;16219;42.864;23.360;2024-03-08T00:17:49;95940.91;;;5.73;100.00
29169;BME280;16219;42.864;23.360;2024-03-08T00:20:17;95922.84;;;5.72;100.00
29169;BME280;16219;42.864;23.360;2024-03-08T00:22:44;95942.59;;;5.88;100.00
29169;BME280;16219;42.864;23.360;2024-03-08T00:25:11;95925.81;;;5.65;100.00
29169;BME280;16219;42.864;23.360;2024-03-08T00:27:38;95938.03;;;5.75;100.00
29169;BME280;16219;42.864;23.360;2024-03-08T00:30:07;95933.88;;;5.69;100.00
29169;BME280;16219;42.864;23.360;2024-03-08T00:32:35;95933.66;;;5.65;100.00
29169;BME280;16219;42.864;23.360;2024-03-08T00:35:03;95931.53;;;5.67;100.00
29169;BME280;16219;42.864;23.360;2024-03-08T00:37:32;95931.03;;;5.65;100.00
29169;BME280;16219;42.864;23.360;2024-03-08T00:40:00;95928.13;;;5.67;100.00
29169;BME280;16219;42.864;23.360;2024-03-08T00:42:27;95915.81;;;5.67;100.00
29169;BME280;16219;42.864;23.360;2024-03-08T00:44:54;95918.09;;;5.79;100.00
29169;BME280;16219;42.864;23.360;2024-03-08T00:47:20;95904.59;;;5.67;100.00
29169;BME280;16219;42.864;23.360;2024-03-08T00:49:49;95926.94;;;5.83;100.00
29169;BME280;16219;42.864;23.360;2024-03-08T00:52:17;95921.44;;;5.85;100.00
29169;BME280;16219;42.864;23.360;2024-03-08T00:54:44;95920.41;;;5.81;100.00
29169;BME280;16219;42.864;23.360;2024-03-08T00:57:11;95909.13;;;5.85;100.00
29169;BME280;16219;42.864;23.360;2024-03-08T00:59:38;95911.19;;;5.88;100.00
29169;BME280;16219;42.864;23.360;2024-03-08T01:02:05;95905.97;;;5.88;100.00
29169;BME280;16219;42.864;23.360;2024-03-08T01:04:34;95908.09;;;5.86;100.00
29169;BME280;16219;42.864;23.360;2024-03-08T01:07:03;95907.28;;;5.86;100.00
29169;BME280;16219;42.864;23.360;2024-03-08T01:09:30;95902.03;;;5.86;100.00
29169;BME280;16219;42.864;23.360;2024-03-08T01:11:57;95896.59;;;5.82;100.00
29169;BME280;16219;42.864;23.360;2024-03-08T01:14:24;95904.66;;;5.86;100.00
29169;BME280;16219;42.864;23.360;2024-03-08T01:16:52;95894.78;;;5.77;100.00
29169;BME280;16219;42.864;23.360;2024-03-08T01:19:20;95894.00;;;5.77;100.00
29169;BME280;16219;42.864;23.360;2024-03-08T01:21:47;95871.97;;;5.54;100.00
29169;BME280;16219;42.864;23.360;2024-03-08T01:24:15;95886.84;;;5.59;100.00
29169;BME280;16219;42.864;23.360;2024-03-08T01:26:42;95878.19;;;5.63;100.00
29169;BME280;16219;42.864;23.360;2024-03-08T01:29:10;95884.66;;;5.71;100.00
29169;BME280;16219;42.864;23.360;2024-03-08T01:31:37;95881.53;;;5.69;100.00
29169;BME280;16219;42.864;23.360;2024-03-08T01:34:04;95879.25;;;5.62;100.00
29169;BME280;16219;42.864;23.360;2024-03-08T01:36:31;95882.94;;;5.56;100.00
29169;BME280;16219;42.864;23.360;2024-03-08T01:38:58;95878.59;;;5.46;100.00
29169;BME280;16219;42.864;23.360;2024-03-08T01:41:26;95878.88;;;5.45;100.00
29169;BME280;16219;42.864;23.360;2024-03-08T01:43:55;95880.25;;;5.37;100.00
29169;BME280;16219;42.864;23.360;2024-03-08T01:46:22;95877.56;;;5.42;100.00
29169;BME280;16219;42.864;23.360;2024-03-08T01:48:49;95859.84;;;5.34;100.00
29169;BME280;16219;42.864;23.360;2024-03-08T01:51:18;95866.69;;;5.30;100.00
29169;BME280;16219;42.864;23.360;2024-03-08T01:53:46;95850.59;;;5.13;100.00
29169;BME280;16219;42.864;23.360;2024-03-08T01:56:13;95861.06;;;5.13;100.00
29169;BME280;16219;42.864;23.360;2024-03-08T01:58:42;95858.00;;;5.06;100.00
29169;BME280;16219;42.864;23.360;2024-03-08T02:01:11;95863.25;;;5.00;100.00
29169;BME280;16219;42.864;23.360;2024-03-08T02:03:39;95836.34;;;4.61;100.00
29169;BME280;16219;42.864;23.360;2024-03-08T02:06:06;95859.31;;;4.64;100.00
29169;BME280;16219;42.864;23.360;2024-03-08T02:08:35;95859.81;;;4.66;100.00
29169;BME280;16219;42.864;23.360;2024-03-08T02:11:04;95855.59;;;4.70;100.00
29169;BME280;16219;42.864;23.360;2024-03-08T02:13:30;95847.41;;;4.37;100.00
29169;BME280;16219;42.864;23.360;2024-03-08T02:16:00;95845.84;;;4.36;100.00
29169;BME280;16219;42.864;23.360;2024-03-08T02:18:28;95861.06;;;4.29;100.00
29169;BME280;16219;42.864;23.360;2024-03-08T02:20:58;95849.28;;;4.32;100.00
29169;BME280;16219;42.864;23.360;2024-03-08T02:23:26;95861.59;;;4.26;100.00
29169;BME280;16219;42.864;23.360;2024-03-08T02:25:55;95868.91;;;4.29;100.00
29169;BME280;16219;42.864;23.360;2024-03-08T02:28:22;95864.63;;;4.43;100.00
29169;BME280;16219;42.864;23.360;2024-03-08T02:30:50;95860.47;;;4.42;100.00
29169;BME280;16219;42.864;23.360;2024-03-08T02:33:20;95858.66;;;4.38;100.00
29169;BME280;16219;42.864;23.360;2024-03-08T02:35:47;95873.81;;;4.36;100.00
29169;BME280;16219;42.864;23.360;2024-03-08T02:38:18;95870.44;;;4.30;100.00
29169;BME280;16219;42.864;23.360;2024-03-08T02:40:46;95865.53;;;4.18;100.00
29169;BME280;16219;42.864;23.360;2024-03-08T02:43:14;95871.84;;;4.12;100.00
29169;BME280;16219;42.864;23.360;2024-03-08T02:45:42;95877.28;;;4.16;100.00
29169;BME280;16219;42.864;23.360;2024-03-08T02:48:10;95871.81;;;4.17;100.00
29169;BME280;16219;42.864;23.360;2024-03-08T02:50:37;95871.56;;;4.14;100.00
29169;BME280;16219;42.864;23.360;2024-03-08T02:53:06;95881.97;;;4.19;100.00
29169;BME280;16219;42.864;23.360;2024-03-08T02:55:34;95880.16;;;4.14;100.00
29169;BME280;16219;42.864;23.360;2024-03-08T02:58:02;95880.22;;;4.04;100.00
29169;BME280;16219;42.864;23.360;2024-03-08T03:00:30;95887.50;;;4.02;100.00
29169;BME280;16219;42.864;23.360;2024-03-08T03:02:58;95885.66;;;4.08;100.00
29169;BME280;16219;42.864;23.360;2024-03-08T03:05:25;95882.81;;;3.99;100.00
29169;BME280;16219;42.864;23.360;2024-03-08T03:07:52;95887.25;;;3.98;100.00
29169;BME280;16219;42.864;23.360;2024-03-08T03:10:19;95884.16;;;3.91;100.00
29169;BME280;16219;42.864;23.360;2024-03-08T03:12:48;95885.19;;;3.85;100.00
29169;BME280;16219;42.864;23.360;2024-03-08T03:15:16;95876.88;;;3.78;100.00
29169;BME280;16219;42.864;23.360;2024-03-08T03:17:46;95886.25;;;3.84;100.00
29169;BME280;16219;42.864;23.360;2024-03-08T03:20:14;95891.19;;;3.96;100.00
29169;BME280;16219;42.864;23.360;2024-03-08T03:22:48;95901.38;;;3.92;100.00
29169;BME280;16219;42.864;23.360;2024-03-08T03:25:18;95891.22;;;3.81;100.00
29169;BME280;16219;42.864;23.360;2024-03-08T03:27:51;95887.56;;;3.82;100.00
29169;BME280;16219;42.864;23.360;2024-03-08T03:30:18;95901.88;;;3.94;100.00
29169;BME280;16219;42.864;23.360;2024-03-08T03:32:48;95896.94;;;3.88;100.00
29169;BME280;16219;42.864;23.360;2024-03-08T03:35:16;95908.41;;;3.97;100.00
29169;BME280;16219;42.864;23.360;2024-03-08T03:37:44;95909.44;;;4.01;100.00
29169;BME280;16219;42.864;23.360;2024-03-08T03:40:27;95911.28;;;3.95;100.00
29169;BME280;16219;42.864;23.360;2024-03-08T03:42:55;95907.13;;;3.89;100.00
29169;BME280;16219;42.864;23.360;2024-03-08T03:45:22;95913.88;;;3.90;100.00
29169;BME280;16219;42.864;23.360;2024-03-08T03:47:49;95918.09;;;3.91;100.00
29169;BME280;16219;42.864;23.360;2024-03-08T03:50:17;95911.06;;;3.66;100.00
29169;BME280;16219;42.864;23.360;2024-03-08T03:52:45;95922.81;;;3.64;100.00
29169;BME280;16219;42.864;23.360;2024-03-08T03:55:12;95925.44;;;3.74;100.00
29169;BME280;16219;42.864;23.360;2024-03-08T03:57:39;95925.16;;;3.65;100.00
29169;BME280;16219;42.864;23.360;2024-03-08T04:00:09;95928.03;;;3.74;100.00
29169;BME280;16219;42.864;23.360;2024-03-08T04:02:40;95924.63;;;3.73;100.00
29169;BME280;16219;42.864;23.360;2024-03-08T04:05:09;95937.41;;;3.80;100.00
29169;BME280;16219;42.864;23.360;2024-03-08T04:07:37;95915.22;;;3.72;100.00
29169;BME280;16219;42.864;23.360;2024-03-08T04:10:06;95950.44;;;3.95;100.00
29169;BME280;16219;42.864;23.360;2024-03-08T04:12:33;95947.84;;;3.80;100.00
29169;BME280;16219;42.864;23.360;2024-03-08T04:15:01;95949.94;;;3.78;100.00
29169;BME280;16219;42.864;23.360;2024-03-08T04:17:29;95950.19;;;3.87;100.00
29169;BME280;16219;42.864;23.360;2024-03-08T04:19:56;95951.47;;;3.94;100.00
29169;BME280;16219;42.864;23.360;2024-03-08T04:22:23;95960.88;;;4.00;100.00
29169;BME280;16219;42.864;23.360;2024-03-08T04:24:50;95967.13;;;4.05;100.00
29169;BME280;16219;42.864;23.360;2024-03-08T04:27:17;95962.16;;;4.08;100.00
29169;BME280;16219;42.864;23.360;2024-03-08T04:29:44;95973.38;;;4.09;100.00
29169;BME280;16219;42.864;23.360;2024-03-08T04:32:12;95971.81;;;4.13;100.00
29169;BME280;16219;42.864;23.360;2024-03-08T04:34:40;95980.69;;;4.17;100.00
29169;BME280;16219;42.864;23.360;2024-03-08T04:37:07;95973.88;;;4.16;100.00
29169;BME280;16219;42.864;23.360;2024-03-08T04:39:36;95956.41;;;4.06;100.00
29169;BME280;16219;42.864;23.360;2024-03-08T04:42:05;95988.22;;;4.23;100.00
29169;BME280;16219;42.864;23.360;2024-03-08T04:44:35;95979.13;;;4.21;100.00
29169;BME280;16219;42.864;23.360;2024-03-08T04:47:03;95961.91;;;4.10;100.00
29169;BME280;16219;42.864;23.360;2024-03-08T04:49:31;95988.75;;;4.25;100.00
29169;BME280;16219;42.864;23.360;2024-03-08T04:52:02;95984.31;;;4.26;100.00
29169;BME280;16219;42.864;23.360;2024-03-08T04:54:29;95980.63;;;4.32;100.00
29169;BME280;16219;42.864;23.360;2024-03-08T04:56:57;95989.00;;;4.34;100.00
29169;BME280;16219;42.864;23.360;2024-03-08T04:59:25;95987.69;;;4.37;100.00
29169;BME280;16219;42.864;23.360;2024-03-08T05:01:53;95982.75;;;4.30;100.00
29169;BME280;16219;42.864;23.360;2024-03-08T05:04:20;95985.84;;;4.32;100.00
29169;BME280;16219;42.864;23.360;2024-03-08T05:06:47;95996.03;;;4.29;100.00
29169;BME280;16219;42.864;23.360;2024-03-08T05:09:16;95984.81;;;4.28;100.00
29169;BME280;16219;42.864;23.360;2024-03-08T05:11:45;95985.84;;;4.32;100.00
29169;BME280;16219;42.864;23.360;2024-03-08T05:14:13;95968.66;;;4.21;100.00
29169;BME280;16219;42.864;23.360;2024-03-08T05:16:42;95991.06;;;4.37;100.00
29169;BME280;16219;42.864;23.360;2024-03-08T05:19:09;95967.63;;;4.22;100.00
29169;BME280;16219;42.864;23.360;2024-03-08T05:21:36;96003.59;;;4.45;100.00
29169;BME280;16219;42.864;23.360;2024-03-08T05:24:04;96012.22;;;4.51;100.00
29169;BME280;16219;42.864;23.360;2024-03-08T05:26:32;95994.50;;;4.38;100.00
29169;BME280;16219;42.864;23.360;2024-03-08T05:28:59;96016.66;;;4.45;100.00
29169;BME280;16219;42.864;23.360;2024-03-08T05:31:26;96018.22;;;4.41;100.00
29169;BME280;16219;42.864;23.360;2024-03-08T05:33:54;96024.72;;;4.54;100.00
29169;BME280;16219;42.864;23.360;2024-03-08T05:36:22;96021.03;;;4.65;100.00
29169;BME280;16219;42.864;23.360;2024-03-08T05:38:49;96022.63;;;4.56;100.00
29169;BME280;16219;42.864;23.360;2024-03-08T05:41:16;96029.19;;;4.48;100.00
29169;BME280;16219;42.864;23.360;2024-03-08T05:43:45;96031.03;;;4.48;100.00
29169;BME280;16219;42.864;23.360;2024-03-08T05:46:15;96030.47;;;4.56;100.00
29169;BME280;16219;42.864;23.360;2024-03-08T05:48:43;96040.13;;;4.61;100.00
29169;BME280;16219;42.864;23.360;2024-03-08T05:51:10;96035.41;;;4.68;100.00
29169;BME280;16219;42.864;23.360;2024-03-08T05:53:38;96036.44;;;4.72;100.00
29169;BME280;16219;42.864;23.360;2024-03-08T05:56:06;96042.72;;;4.76;100.00
29169;BME280;16219;42.864;23.360;2024-03-08T05:58:35;96050.56;;;4.66;100.00
29169;BME280;16219;42.864;23.360;2024-03-08T06:01:03;96038.00;;;4.73;100.00
29169;BME280;16219;42.864;23.360;2024-03-08T06:03:33;96041.91;;;4.81;100.00
29169;BME280;16219;42.864;23.360;2024-03-08T06:06:00;96043.25;;;4.73;100.00
29169;BME280;16219;42.864;23.360;2024-03-08T06:08:28;96052.88;;;4.83;100.00
29169;BME280;16219;42.864;23.360;2024-03-08T06:10:56;96046.91;;;4.72;100.00
29169;BME280;16219;42.864;23.360;2024-03-08T06:13:24;96037.47;;;4.76;100.00
29169;BME280;16219;42.864;23.360;2024-03-08T06:15:50;96058.59;;;4.90;100.00
29169;BME280;16219;42.864;23.360;2024-03-08T06:18:19;96060.44;;;4.89;100.00
29169;BME280;16219;42.864;23.360;2024-03-08T06:20:46;96058.84;;;4.93;100.00
29169;BME280;16219;42.864;23.360;2024-03-08T06:23:13;96059.88;;;4.92;100.00
29169;BME280;16219;42.864;23.360;2024-03-08T06:25:43;96060.91;;;4.96;100.00
29169;BME280;16219;42.864;23.360;2024-03-08T06:28:10;96032.72;;;4.83;100.00
29169;BME280;16219;42.864;23.360;2024-03-08T06:30:37;96064.56;;;5.06;100.00
29169;BME280;16219;42.864;23.360;2024-03-08T06:33:04;96068.75;;;4.96;100.00
29169;BME280;16219;42.864;23.360;2024-03-08T06:35:34;96069.53;;;4.97;100.00
29169;BME280;16219;42.864;23.360;2024-03-08T06:38:03;96071.59;;;5.05;100.00
29169;BME280;16219;42.864;23.360;2024-03-08T06:40:30;96077.16;;;4.93;100.00
29169;BME280;16219;42.864;23.360;2024-03-08T06:42:57;96077.16;;;4.88;100.00
29169;BME280;16219;42.864;23.360;2024-03-08T06:45:24;96076.63;;;4.91;100.00
29169;BME280;16219;42.864;23.360;2024-03-08T06:47:51;96065.66;;;4.84;100.00
29169;BME280;16219;42.864;23.360;2024-03-08T06:50:18;96070.31;;;5.03;100.00
29169;BME280;16219;42.864;23.360;2024-03-08T06:52:46;96075.81;;;5.01;100.00
29169;BME280;16219;42.864;23.360;2024-03-08T06:55:19;96072.41;;;5.06;100.00
29169;BME280;16219;42.864;23.360;2024-03-08T06:57:46;96085.97;;;5.08;100.00
29169;BME280;16219;42.864;23.360;2024-03-08T07:00:14;96090.63;;;5.21;100.00
29169;BME280;16219;42.864;23.360;2024-03-08T07:02:44;96083.88;;;5.10;100.00
29169;BME280;16219;42.864;23.360;2024-03-08T07:05:12;96090.97;;;5.04;100.00
29169;BME280;16219;42.864;23.360;2024-03-08T07:07:39;96089.69;;;4.96;100.00
29169;BME280;16219;42.864;23.360;2024-03-08T07:10:08;96089.69;;;4.91;100.00
29169;BME280;16219;42.864;23.360;2024-03-08T07:12:36;96090.97;;;4.99;100.00
29169;BME280;16219;42.864;23.360;2024-03-08T07:15:04;96097.53;;;4.96;100.00
29169;BME280;16219;42.864;23.360;2024-03-08T07:17:32;96096.50;;;4.87;100.00
29169;BME280;16219;42.864;23.360;2024-03-08T07:20:00;96091.81;;;4.89;100.00
29169;BME280;16219;42.864;23.360;2024-03-08T07:22:37;96096.47;;;5.03;100.00
29169;BME280;16219;42.864;23.360;2024-03-08T07:25:05;96092.25;;;5.12;100.00
29169;BME280;16219;42.864;23.360;2024-03-08T07:27:47;96100.03;;;5.22;100.00
29169;BME280;16219;42.864;23.360;2024-03-08T07:30:18;96099.25;;;5.21;100.00
29169;BME280;16219;42.864;23.360;2024-03-08T07:32:59;96099.53;;;5.20;100.00
29169;BME280;16219;42.864;23.360;2024-03-08T07:35:27;96103.69;;;5.26;100.00
29169;BME280;16219;42.864;23.360;2024-03-08T07:37:54;96102.66;;;5.22;100.00
29169;BME280;16219;42.864;23.360;2024-03-08T07:40:22;96107.63;;;5.29;100.00
29169;BME280;16219;42.864;23.360;2024-03-08T07:42:51;96106.59;;;5.24;100.00
29169;BME280;16219;42.864;23.360;2024-03-08T07:45:18;96099.28;;;5.16;100.00
29169;BME280;16219;42.864;23.360;2024-03-08T07:47:45;96102.41;;;5.23;100.00
29169;BME280;16219;42.864;23.360;2024-03-08T07:50:12;96100.03;;;5.32;100.00
29169;BME280;16219;42.864;23.360;2024-03-08T07:52:42;96102.88;;;5.36;100.00
29169;BME280;16219;42.864;23.360;2024-03-08T07:55:09;96103.59;;;5.46;100.00
29169;BME280;16219;42.864;23.360;2024-03-08T07:57:37;96099.94;;;5.47;100.00
29169;BME280;16219;42.864;23.360;2024-03-08T08:00:07;96096.28;;;5.48;100.00
29169;BME280;16219;42.864;23.360;2024-03-08T08:02:36;96100.72;;;5.53;100.00
29169;BME280;16219;42.864;23.360;2024-03-08T08:05:04;96098.56;;;5.60;100.00
29169;BME280;16219;42.864;23.360;2024-03-08T08:07:31;96100.59;;;5.73;100.00
29169;BME280;16219;42.864;23.360;2024-03-08T08:09:58;96096.03;;;5.89;100.00
29169;BME280;16219;42.864;23.360;2024-03-08T08:12:25;96092.84;;;5.97;100.00
29169;BME280;16219;42.864;23.360;2024-03-08T08:14:54;96096.09;;;6.18;100.00
29169;BME280;16219;42.864;23.360;2024-03-08T08:17:22;96098.09;;;6.32;100.00
29169;BME280;16219;42.864;23.360;2024-03-08T08:19:49;96109.72;;;6.55;100.00
29169;BME280;16219;42.864;23.360;2024-03-08T08:22:16;96106.19;;;6.64;100.00
29169;BME280;16219;42.864;23.360;2024-03-08T08:24:43;96107.34;;;6.82;100.00
29169;BME280;16219;42.864;23.360;2024-03-08T08:27:11;96083.97;;;6.86;100.00
29169;BME280;16219;42.864;23.360;2024-03-08T08:29:38;96086.69;;;6.99;100.00
29169;BME280;16219;42.864;23.360;2024-03-08T08:32:05;96110.06;;;7.20;100.00
29169;BME280;16219;42.864;23.360;2024-03-08T08:34:34;96110.84;;;7.20;100.00
29169;BME280;16219;42.864;23.360;2024-03-08T08:37:01;96101.22;;;7.16;100.00
29169;BME280;16219;42.864;23.360;2024-03-08T08:39:28;96099.19;;;7.08;100.00
29169;BME280;16219;42.864;23.360;2024-03-08T08:41:55;96097.31;;;6.89;100.00
29169;BME280;16219;42.864;23.360;2024-03-08T08:44:23;96098.50;;;6.73;100.00
29169;BME280;16219;42.864;23.360;2024-03-08T08:46:51;96096.97;;;6.72;100.00
29169;BME280;16219;42.864;23.360;2024-03-08T08:49:19;96083.94;;;6.62;100.00
29169;BME280;16219;42.864;23.360;2024-03-08T08:51:50;96092.16;;;6.79;100.00
29169;BME280;16219;42.864;23.360;2024-03-08T08:54:17;96082.25;;;6.76;100.00
29169;BME280;16219;42.864;23.360;2024-03-08T08:56:44;96094.94;;;7.12;100.00
29169;BME280;16219;42.864;23.360;2024-03-08T08:59:12;96087.53;;;7.19;100.00
29169;BME280;16219;42.864;23.360;2024-03-08T09:01:40;96076.31;;;6.89;100.00
29169;BME280;16219;42.864;23.360;2024-03-08T09:04:07;96049.66;;;6.82;100.00
29169;BME280;16219;42.864;23.360;2024-03-08T09:06:35;96084.97;;;7.14;100.00
29169;BME280;16219;42.864;23.360;2024-03-08T09:09:04;96090.59;;;7.02;100.00
29169;BME280;16219;42.864;23.360;2024-03-08T09:11:31;96098.91;;;7.09;100.00
29169;BME280;16219;42.864;23.360;2024-03-08T09:13:58;96083.66;;;7.35;100.00
29169;BME280;16219;42.864;23.360;2024-03-08T09:16:25;96090.69;;;7.59;100.00
29169;BME280;16219;42.864;23.360;2024-03-08T09:18:52;96082.13;;;7.72;100.00
29169;BME280;16219;42.864;23.360;2024-03-08T09:21:19;96078.47;;;7.30;100.00
29169;BME280;16219;42.864;23.360;2024-03-08T09:23:46;96080.03;;;7.31;100.00
29169;BME280;16219;42.864;23.360;2024-03-08T09:26:14;96071.38;;;7.31;100.00
29169;BME280;16219;42.864;23.360;2024-03-08T09:28:42;96083.78;;;7.25;100.00
29169;BME280;16219;42.864;23.360;2024-03-08T09:31:09;96084.38;;;6.98;100.00
29169;BME280;16219;42.864;23.360;2024-03-08T09:33:36;96074.97;;;7.16;100.00
29169;BME280;16219;42.864;23.360;2024-03-08T09:36:05;96095.72;;;7.36;100.00
29169;BME280;16219;42.864;23.360;2024-03-08T09:38:33;96090.38;;;7.22;100.00
29169;BME280;16219;42.864;23.360;2024-03-08T09:41:00;96092.25;;;7.17;100.00
29169;BME280;16219;42.864;23.360;2024-03-08T09:43:31;96091.22;;;7.18;100.00
29169;BME280;16219;42.864;23.360;2024-03-08T09:45:58;96098.34;;;7.36;100.00
29169;BME280;16219;42.864;23.360;2024-03-08T09:48:25;96096.81;;;7.54;100.00
29169;BME280;16219;42.864;23.360;2024-03-08T09:50:52;96093.88;;;7.56;100.00
29169;BME280;16219;42.864;23.360;2024-03-08T09:53:21;96084.03;;;7.66;100.00
29169;BME280;16219;42.864;23.360;2024-03-08T09:55:48;96092.63;;;7.72;100.00
29169;BME280;16219;42.864;23.360;2024-03-08T09:58:16;96091.53;;;7.73;100.00
29169;BME280;16219;42.864;23.360;2024-03-08T10:00:54;96082.97;;;7.86;100.00
29169;BME280;16219;42.864;23.360;2024-03-08T10:03:23;96084.38;;;7.97;100.00
29169;BME280;16219;42.864;23.360;2024-03-08T10:05:51;96083.25;;;8.04;100.00
29169;BME280;16219;42.864;23.360;2024-03-08T10:08:19;96078.25;;;8.21;100.00
29169;BME280;16219;42.864;23.360;2024-03-08T10:10:46;96080.53;;;8.09;100.00
29169;BME280;16219;42.864;23.360;2024-03-08T10:13:15;96092.81;;;8.13;100.00
29169;BME280;16219;42.864;23.360;2024-03-08T10:15:42;96086.09;;;8.07;100.00
29169;BME280;16219;42.864;23.360;2024-03-08T10:18:11;96090.78;;;8.24;100.00
29169;BME280;16219;42.864;23.360;2024-03-08T10:20:38;96092.13;;;8.40;100.00
29169;BME280;16219;42.864;23.360;2024-03-08T10:23:05;96094.16;;;8.76;100.00
29169;BME280;16219;42.864;23.360;2024-03-08T10:25:35;96087.06;;;8.90;100.00
29169;BME280;16219;42.864;23.360;2024-03-08T10:28:03;96086.97;;;9.09;100.00
29169;BME280;16219;42.864;23.360;2024-03-08T10:30:30;96090.47;;;9.18;100.00
29169;BME280;16219;42.864;23.360;2024-03-08T10:32:58;96085.50;;;9.17;100.00
29169;BME280;16219;42.864;23.360;2024-03-08T10:35:26;96070.00;;;9.15;100.00
29169;BME280;16219;42.864;23.360;2024-03-08T10:37:56;96076.91;;;9.39;100.00
29169;BME280;16219;42.864;23.360;2024-03-08T10:40:27;96074.91;;;9.58;100.00
29169;BME280;16219;42.864;23.360;2024-03-08T10:42:56;96066.97;;;9.72;100.00
29169;BME280;16219;42.864;23.360;2024-03-08T10:45:31;96069.41;;;9.82;100.00
29169;BME280;16219;42.864;23.360;2024-03-08T10:48:22;96067.69;;;9.64;100.00
29169;BME280;16219;42.864;23.360;2024-03-08T10:50:56;96060.38;;;9.61;100.00
29169;BME280;16219;42.864;23.360;2024-03-08T10:53:23;96068.22;;;9.52;100.00
29169;BME280;16219;42.864;23.360;2024-03-08T10:55:53;96059.25;;;9.39;100.00
29169;BME280;16219;42.864;23.360;2024-03-08T10:58:24;96053.22;;;9.25;100.00
29169;BME280;16219;42.864;23.360;2024-03-08T11:00:53;96058.03;;;9.09;100.00
29169;BME280;16219;42.864;23.360;2024-03-08T11:03:45;96059.78;;;9.14;100.00
29169;BME280;16219;42.864;23.360;2024-03-08T11:06:17;96049.16;;;9.19;100.00
29169;BME280;16219;42.864;23.360;2024-03-08T11:08:48;96043.50;;;8.98;100.00
29169;BME280;16219;42.864;23.360;2024-03-08T11:11:26;96044.47;;;8.74;100.00
29169;BME280;16219;42.864;23.360;2024-03-08T11:13:55;96042.84;;;8.92;100.00
29169;BME280;16219;42.864;23.360;2024-03-08T11:16:37;96050.44;;;8.94;100.00
29169;BME280;16219;42.864;23.360;2024-03-08T11:19:22;96042.50;;;9.08;100.00
29169;BME280;16219;42.864;23.360;2024-03-08T11:21:58;96037.53;;;9.20;100.00
29169;BME280;16219;42.864;23.360;2024-03-08T11:24:26;96038.91;;;9.04;100.00
29169;BME280;16219;42.864;23.360;2024-03-08T11:26:57;96034.94;;;8.92;100.00
29169;BME280;16219;42.864;23.360;2024-03-08T11:29:33;96015.22;;;9.04;100.00
29169;BME280;16219;42.864;23.360;2024-03-08T11:32:07;96021.13;;;9.37;100.00
29169;BME280;16219;42.864;23.360;2024-03-08T11:34:35;96027.88;;;9.29;98.79
29169;BME280;16219;42.864;23.360;2024-03-08T11:37:05;96027.31;;;9.18;100.00
29169;BME280;16219;42.864;23.360;2024-03-08T11:39:39;96012.69;;;9.12;100.00
29169;BME280;16219;42.864;23.360;2024-03-08T11:42:06;96019.31;;;8.96;100.00
29169;BME280;16219;42.864;23.360;2024-03-08T11:44:33;96018.94;;;9.02;100.00
29169;BME280;16219;42.864;23.360;2024-03-08T11:47:01;96026.94;;;8.84;98.20
29169;BME280;16219;42.864;23.360;2024-03-08T11:49:31;96022.16;;;8.72;100.00
29169;BME280;16219;42.864;23.360;2024-03-08T11:52:01;96019.66;;;8.67;100.00
29169;BME280;16219;42.864;23.360;2024-03-08T11:54:34;96016.31;;;8.61;100.00
29169;BME280;16219;42.864;23.360;2024-03-08T11:57:01;96023.34;;;8.93;100.00
29169;BME280;16219;42.864;23.360;2024-03-08T11:59:29;96012.72;;;8.98;100.00
29169;BME280;16219;42.864;23.360;2024-03-08T12:02:03;96004.81;;;8.98;96.96
29169;BME280;16219;42.864;23.360;2024-03-08T12:04:31;96010.66;;;8.82;98.77
29169;BME280;16219;42.864;23.360;2024-03-08T12:06:59;96011.34;;;9.01;99.26
29169;BME280;16219;42.864;23.360;2024-03-08T12:09:28;96012.31;;;9.05;95.00
29169;BME280;16219;42.864;23.360;2024-03-08T12:11:58;96019.75;;;8.75;97.81
29169;BME280;16219;42.864;23.360;2024-03-08T12:14:26;96015.81;;;8.45;100.00
29169;BME280;16219;42.864;23.360;2024-03-08T12:16:53;96019.31;;;8.41;100.00
29169;BME280;16219;42.864;23.360;2024-03-08T12:19:20;96015.06;;;8.26;100.00
29169;BME280;16219;42.864;23.360;2024-03-08T12:21:47;96017.91;;;8.30;98.43
29169;BME280;16219;42.864;23.360;2024-03-08T12:24:16;96013.31;;;8.54;100.00
29169;BME280;16219;42.864;23.360;2024-03-08T12:26:46;96002.97;;;8.58;100.00
29169;BME280;16219;42.864;23.360;2024-03-08T12:29:24;96017.19;;;8.57;100.00
29169;BME280;16219;42.864;23.360;2024-03-08T12:31:54;96017.38;;;8.46;100.00
29169;BME280;16219;42.864;23.360;2024-03-08T12:34:21;96018.38;;;8.64;100.00
29169;BME280;16219;42.864;23.360;2024-03-08T12:36:49;96002.47;;;8.69;99.13
29169;BME280;16219;42.864;23.360;2024-03-08T12:39:18;95999.66;;;8.66;98.42
29169;BME280;16219;42.864;23.360;2024-03-08T12:41:48;96003.38;;;8.92;99.53
29169;BME280;16219;42.864;23.360;2024-03-08T12:44:17;96000.63;;;8.97;97.66
29169;BME280;16219;42.864;23.360;2024-03-08T12:46:46;96003.88;;;8.67;96.38
29169;BME280;16219;42.864;23.360;2024-03-08T12:49:14;95993.81;;;8.69;96.16
29169;BME280;16219;42.864;23.360;2024-03-08T12:51:43;95989.75;;;8.63;98.33
29169;BME280;16219;42.864;23.360;2024-03-08T12:54:10;95987.09;;;8.76;100.00
29169;BME280;16219;42.864;23.360;2024-03-08T12:56:37;95983.66;;;9.04;97.63